KFFA/FFA METAR and TAF weather

Enter ICAO airport designator
Station Type Date Time Source
KFFA METAR 2020/07/03 14:35 UTC NOAA

KFFA 031435Z AUTO 28004KT 10SM CLR 28/22 A2990 RMK AO2 T02810215


Station Type Date Time Source
KFFA Decoded METAR 2020/07/03 14:35 UTC NOAA

Kill Devil Hills, First Flight Airport, NC, United States (KFFA) 36-01N 075-40W
Jul 03, 2020 - 10:35 AM EDT / 2020.07.03 1435 UTC
Wind: from the W (280 degrees) at 5 MPH (4 KT):0
Visibility: 10 mile(s):0
Sky conditions: clear
Temperature: 82.6 F (28.1 C)
Dew Point: 70.7 F (21.5 C)
Relative Humidity: 67%
Pressure (altimeter): 29.9 in. Hg (1012 hPa)
ob: KFFA 031435Z AUTO 28004KT 10SM CLR 28/22 A2990 RMK AO2 T02810215
cycle: 14

Station Type Date Time Source
KFFA TAF UTC NOAA

Error!

Example: see airport list